This is the latest recevied weather packets stored in our database for station/object DM5KA-13. If no packets are shown the sender has not sent any weather packets the latest 10 day(s).
| Time | Temp. | Humidity | Pressure | Rain* | Wind** | Luminosity | Snow |
|---|---|---|---|---|---|---|---|
| 1777437305 | 2.22° C | 69% | 1028.4 hPa | 0 mm | 0 m/s | - | - |
| 1777437005 | 2.22° C | 70% | 1028.4 hPa | 0 mm | 0 m/s | - | - |
| 1777436704 | 1.11° C | 75% | 1028.3 hPa | 0 mm | 0 m/s | - | - |
| 1777435805 | 0° C | 77% | 1028.2 hPa | 0 mm | 0 m/s | - | - |
| 1777435505 | 0° C | 77% | 1028.2 hPa | 0 mm | 0.45 m/s, 0° | - | - |
| 1777433705 | 0° C | 78% | 1028.1 hPa | 0 mm | 0 m/s | - | - |
| 1777433117 | 0° C | 79% | 1028 hPa | 0 mm | 0 m/s | - | - |
| 1777431917 | 0° C | 77% | 1027.8 hPa | 0 mm | 0 m/s | - | - |
| 1777431017 | 1.11° C | 75% | 1027.8 hPa | 0 mm | 0 m/s | - | - |
| 1777430717 | 1.11° C | 74% | 1027.8 hPa | 0 mm | 0 m/s | - | - |
| 1777430117 | 1.11° C | 73% | 1027.8 hPa | 0 mm | 0 m/s | - | - |
| 1777425005 | 2.22° C | 66% | 1027.6 hPa | 0 mm | 0 m/s | - | - |
| 1777415104 | 6.11° C | 50% | 1027 hPa | 0 mm | 0 m/s | - | - |
| 1777414219 | 6.11° C | 47% | 1026.8 hPa | 0 mm | 0 m/s | - | - |
| 1777413916 | 7.22° C | 43% | 1026.7 hPa | 0 mm | 0 m/s | - | - |
| 1777413616 | 7.22° C | 42% | 1026.7 hPa | 0 mm | 0 m/s | - | - |
| 1777413316 | 7.78° C | 40% | 1026.7 hPa | 0 mm | 0 m/s | - | - |
| 1777412116 | 7.22° C | 42% | 1026.6 hPa | 0 mm | 0 m/s | - | - |
| 1777411516 | 7.22° C | 42% | 1026.5 hPa | 0 mm | 0 m/s | - | - |
| 1777411216 | 7.22° C | 42% | 1026.5 hPa | 0 mm | 0 m/s | - | - |
| 1777410916 | 7.22° C | 44% | 1026.5 hPa | 0 mm | 0 m/s | - | - |
| 1777410316 | 7.78° C | 39% | 1026.5 hPa | 0 mm | 0 m/s | - | - |
| 1777410016 | 7.78° C | 39% | 1026.4 hPa | 0 mm | 0.45 m/s, 0° | - | - |
| 1777409716 | 7.78° C | 38% | 1026.3 hPa | 0 mm | 0.45 m/s, 0° | - | - |
| 1777409416 | 7.78° C | 38% | 1026.3 hPa | 0 mm | 0 m/s | - | - |
* Rain latest hour (hover to see other rain measurements)
** Current wind speed in m/s (hover to see current wind gust speed)